createdAt,value
2018-06-21T00:05:59.094Z,92.00
2018-06-21T00:08:27.143Z,92.00
2018-06-21T00:10:55.194Z,92.20
2018-06-21T00:15:50.948Z,92.50
2018-06-21T00:18:18.996Z,92.50
2018-06-21T00:20:47.060Z,92.60
2018-06-21T00:23:15.336Z,92.70
2018-06-21T00:25:44.081Z,93.10
2018-06-21T00:28:12.466Z,93.00
2018-06-21T00:30:40.525Z,93.10
2018-06-21T00:33:08.597Z,93.10
2018-06-21T00:35:36.578Z,93.20
2018-06-21T00:38:04.562Z,94.00
2018-06-21T00:40:32.550Z,93.80
2018-06-21T00:43:00.623Z,93.70
2018-06-21T00:45:28.623Z,93.50
2018-06-21T00:47:56.582Z,93.80
2018-06-21T00:55:32.041Z,94.40
2018-06-21T00:58:00.024Z,94.30
2018-06-21T01:00:28.064Z,94.40
2018-06-21T01:05:23.846Z,94.40
2018-06-21T01:07:51.984Z,94.50
2018-06-21T01:10:19.987Z,94.50
2018-06-21T01:15:15.900Z,94.80
2018-06-21T01:17:43.964Z,94.70
2018-06-21T01:20:12.390Z,94.90
2018-06-21T01:22:40.367Z,95.00
2018-06-21T01:25:08.339Z,95.00
2018-06-21T01:27:36.386Z,95.10
2018-06-21T01:30:04.350Z,95.10
2018-06-21T01:32:32.315Z,95.20
2018-06-21T01:35:00.427Z,95.30
2018-06-21T01:37:28.399Z,95.20
2018-06-21T01:39:56.383Z,95.00
2018-06-21T01:44:52.179Z,95.40
2018-06-21T01:47:20.223Z,95.40
2018-06-21T01:49:48.247Z,95.60
2018-06-21T01:52:16.186Z,95.90
2018-06-21T01:54:44.242Z,95.90
2018-06-21T01:59:40.878Z,96.40
2018-06-21T02:02:08.851Z,96.30
2018-06-21T02:07:04.911Z,96.10
2018-06-21T02:09:33.122Z,96.00
2018-06-21T02:12:01.208Z,96.00
2018-06-21T02:14:29.306Z,95.90
2018-06-21T02:16:57.347Z,96.00
2018-06-21T02:24:21.071Z,96.30
2018-06-21T02:26:49.126Z,96.40
2018-06-21T02:29:17.190Z,96.50
2018-06-21T02:31:45.185Z,96.60
2018-06-21T02:36:41.404Z,96.80
2018-06-21T02:39:09.880Z,97.00
2018-06-21T02:41:38.163Z,97.20
2018-06-21T02:44:06.343Z,97.10
2018-06-21T02:46:34.299Z,97.10
2018-06-21T02:49:02.263Z,97.40
2018-06-21T02:51:30.214Z,97.30
2018-06-21T02:53:58.244Z,97.40
2018-06-21T02:56:26.466Z,97.40
2018-06-21T02:58:54.617Z,97.30
2018-06-21T03:01:22.718Z,97.30
2018-06-21T03:03:50.794Z,97.40
2018-06-21T03:06:18.731Z,97.30
2018-06-21T03:08:46.694Z,97.30
2018-06-21T03:11:14.886Z,97.20
2018-06-21T03:13:42.911Z,97.20
2018-06-21T03:21:06.715Z,97.10
2018-06-21T03:23:34.828Z,97.00
2018-06-21T03:28:30.803Z,96.80
2018-06-21T03:30:58.787Z,96.60
2018-06-21T03:33:26.734Z,96.60
2018-06-21T03:35:54.771Z,96.50
2018-06-21T03:38:22.742Z,96.40
2018-06-21T03:40:50.715Z,96.40
2018-06-21T03:43:18.654Z,96.40
2018-06-21T03:45:46.751Z,96.20
2018-06-21T03:50:42.652Z,96.00
2018-06-21T03:53:10.607Z,96.00
2018-06-21T03:55:38.574Z,95.90
2018-06-21T03:58:06.531Z,95.90
2018-06-21T04:00:34.578Z,95.80
2018-06-21T04:03:02.565Z,95.80
2018-06-21T04:07:58.506Z,95.50
2018-06-21T04:10:26.484Z,95.50
2018-06-21T04:12:54.459Z,95.30
2018-06-21T04:15:22.476Z,95.10
2018-06-21T04:17:50.419Z,94.90
2018-06-21T04:20:18.547Z,94.80
2018-06-21T04:22:46.503Z,94.50
2018-06-21T04:25:15.215Z,94.20
2018-06-21T04:37:40.939Z,94.00
2018-06-21T04:40:08.917Z,93.90
2018-06-21T04:42:36.927Z,93.90
2018-06-21T04:47:35.666Z,93.60
2018-06-21T04:50:03.719Z,93.60
2018-06-21T04:52:31.669Z,93.40
2018-06-21T04:54:59.695Z,93.40
2018-06-21T04:59:55.455Z,93.10
2018-06-21T05:04:51.222Z,93.10
2018-06-21T05:09:47.819Z,92.50
2018-06-21T05:12:20.883Z,92.30
2018-06-21T05:14:49.579Z,92.20
2018-06-21T05:17:17.571Z,92.10
2018-06-21T05:19:45.567Z,92.00
2018-06-21T05:24:41.443Z,91.90
2018-06-21T05:27:09.587Z,91.50
2018-06-21T05:29:37.587Z,91.30
2018-06-21T05:32:05.621Z,91.30
2018-06-21T05:37:01.435Z,90.70
2018-06-21T05:39:29.440Z,90.10
2018-06-21T05:41:57.440Z,89.90
2018-06-21T05:44:25.734Z,89.40
2018-06-21T05:46:54.542Z,89.10
2018-06-21T05:49:22.520Z,88.90
2018-06-21T05:51:50.491Z,88.10
2018-06-21T05:54:18.602Z,88.30
2018-06-21T05:56:46.653Z,87.90
2018-06-21T05:59:14.612Z,86.90
2018-06-21T06:04:10.547Z,87.00
2018-06-21T06:06:38.543Z,87.20
2018-06-21T06:09:07.832Z,87.10
2018-06-21T06:11:35.936Z,86.80
2018-06-21T06:14:04.032Z,86.50
2018-06-21T06:16:32.290Z,86.20
2018-06-21T06:19:00.350Z,85.70
2018-06-21T06:21:28.411Z,85.60
2018-06-21T06:28:52.084Z,83.60
2018-06-21T06:31:20.099Z,83.30
2018-06-21T06:33:48.420Z,83.10
2018-06-21T06:36:16.384Z,82.60
2018-06-21T06:38:44.380Z,82.30
2018-06-21T06:41:12.366Z,82.60
2018-06-21T06:43:40.326Z,83.40
2018-06-21T06:46:08.406Z,84.20
2018-06-21T06:48:36.619Z,84.30
2018-06-21T06:51:05.646Z,83.70
2018-06-21T06:53:33.926Z,82.70
2018-06-21T06:56:01.932Z,82.10
2018-06-21T06:58:30.049Z,81.90
2018-06-21T07:00:58.542Z,81.40
2018-06-21T07:03:26.596Z,80.70
2018-06-21T07:08:24.124Z,80.70
2018-06-21T07:10:52.724Z,80.50
2018-06-21T07:13:20.801Z,81.50
2018-06-21T07:15:49.871Z,79.80
2018-06-21T07:20:46.856Z,78.90
2018-06-21T07:25:42.671Z,78.90
2018-06-21T07:28:10.636Z,77.50
2018-06-21T07:30:38.691Z,76.80
2018-06-21T07:35:34.478Z,75.20
2018-06-21T07:38:02.443Z,74.40
2018-06-21T07:40:32.138Z,74.10
2018-06-21T07:43:00.287Z,73.70
2018-06-21T07:45:28.324Z,74.30
2018-06-21T07:50:24.785Z,74.80
2018-06-21T07:52:53.483Z,74.50
2018-06-21T07:55:21.492Z,74.10
2018-06-21T08:00:17.259Z,71.70
2018-06-21T08:02:45.390Z,70.60
2018-06-21T08:05:13.530Z,70.20
2018-06-21T08:07:41.741Z,69.60
2018-06-21T08:10:09.788Z,69.60
2018-06-21T08:15:05.746Z,70.00
2018-06-21T08:17:34.814Z,69.50
2018-06-21T08:20:02.951Z,69.30
2018-06-21T08:24:58.831Z,68.60
2018-06-21T08:27:26.795Z,67.80
2018-06-21T08:34:50.696Z,66.00
2018-06-21T08:37:18.988Z,66.40
2018-06-21T08:39:46.955Z,66.70
2018-06-21T08:42:14.910Z,67.10
2018-06-21T08:44:42.999Z,66.50
2018-06-21T08:47:11.259Z,66.00
2018-06-21T08:49:39.382Z,66.10
2018-06-21T08:52:07.503Z,66.80
2018-06-21T08:54:35.883Z,66.90
2018-06-21T08:57:03.988Z,66.50
2018-06-21T08:59:31.951Z,66.50
2018-06-21T09:01:59.954Z,66.50
2018-06-21T09:04:28.139Z,66.00
2018-06-21T09:06:56.331Z,65.60
2018-06-21T09:09:24.432Z,65.00
2018-06-21T09:14:22.714Z,65.60
2018-06-21T09:16:51.108Z,65.90
2018-06-21T09:19:20.950Z,65.20
2018-06-21T09:21:49.613Z,64.60
2018-06-21T09:24:20.046Z,65.50
2018-06-21T09:26:48.444Z,64.50
2018-06-21T09:29:16.653Z,63.40
2018-06-21T09:31:44.715Z,62.70
2018-06-21T09:34:12.739Z,62.20
2018-06-21T09:36:42.571Z,61.70
2018-06-21T09:39:16.746Z,60.80
2018-06-21T09:41:50.339Z,59.80
2018-06-21T09:44:23.833Z,59.40
2018-06-21T09:47:58.273Z,59.30
2018-06-21T09:50:30.066Z,59.20
2018-06-21T09:52:58.866Z,58.10
2018-06-21T09:55:27.160Z,56.60
2018-06-21T09:57:55.275Z,56.10
2018-06-21T10:00:29.245Z,55.60
2018-06-21T10:02:57.608Z,55.90
2018-06-21T10:05:28.599Z,54.00
2018-06-21T10:08:01.592Z,54.30
2018-06-21T10:10:29.634Z,54.70
2018-06-21T10:12:58.571Z,54.60
2018-06-21T10:17:58.114Z,54.20
2018-06-21T10:20:26.219Z,54.30
2018-06-21T10:22:54.442Z,53.10
2018-06-21T10:25:22.657Z,53.60
2018-06-21T10:27:50.620Z,53.90
2018-06-21T10:30:18.595Z,54.20
2018-06-21T10:32:46.591Z,54.50
2018-06-21T10:35:14.696Z,55.30
2018-06-21T10:37:42.967Z,55.90
2018-06-21T10:40:10.959Z,58.40
2018-06-21T10:42:39.125Z,63.60
2018-06-21T10:45:07.553Z,77.10
2018-06-21T10:47:35.720Z,91.10
2018-06-21T10:50:03.684Z,95.60
2018-06-21T10:52:31.659Z,97.70
2018-06-21T10:54:59.754Z,99.90
2018-06-21T10:57:27.722Z,99.90
2018-06-21T10:59:55.834Z,99.90
2018-06-21T11:02:23.800Z,99.90
2018-06-21T11:07:25.311Z,99.90
2018-06-21T11:09:53.333Z,99.90
2018-06-21T11:12:21.401Z,99.90
2018-06-21T11:14:49.539Z,99.90
2018-06-21T11:17:17.452Z,99.90
2018-06-21T11:19:45.491Z,99.90
2018-06-21T11:22:13.519Z,99.90
2018-06-21T11:24:41.560Z,99.90
2018-06-21T11:27:09.554Z,99.90
2018-06-21T11:29:37.658Z,99.90
2018-06-21T11:32:05.603Z,99.90
2018-06-21T11:37:01.584Z,99.90
2018-06-21T11:39:29.597Z,99.90
2018-06-21T11:41:57.643Z,99.90
2018-06-21T11:44:26.028Z,99.90
2018-06-21T11:49:22.152Z,99.90
2018-06-21T11:51:50.115Z,99.80
2018-06-21T11:54:18.093Z,99.70
2018-06-21T11:56:46.076Z,99.70
2018-06-21T11:59:14.074Z,99.90
2018-06-21T12:01:42.116Z,99.90
2018-06-21T12:04:11.199Z,99.90
2018-06-21T12:06:39.163Z,99.90
2018-06-21T12:09:08.747Z,99.90
2018-06-21T12:11:36.847Z,99.90
2018-06-21T12:14:05.158Z,99.90
2018-06-21T12:16:33.190Z,99.90
2018-06-21T12:19:01.140Z,99.90
2018-06-21T12:21:29.097Z,99.90
2018-06-21T12:23:57.193Z,99.90
2018-06-21T12:26:25.178Z,99.90
2018-06-21T12:28:53.177Z,99.90
2018-06-21T12:31:21.147Z,99.90
2018-06-21T12:33:49.341Z,99.90
2018-06-21T12:41:13.007Z,99.90
2018-06-21T12:43:41.610Z,99.90
2018-06-21T12:46:09.733Z,99.90
2018-06-21T12:48:37.759Z,99.90
2018-06-21T12:53:33.766Z,99.90
2018-06-21T12:56:01.871Z,99.90
2018-06-21T12:58:30.056Z,99.90
2018-06-21T13:00:58.027Z,99.90
2018-06-21T13:03:26.228Z,99.90
2018-06-21T13:05:54.290Z,99.90
2018-06-21T13:09:35.734Z,99.90
2018-06-21T13:12:26.564Z,99.90
2018-06-21T13:14:55.450Z,99.90
2018-06-21T13:17:23.528Z,99.90
2018-06-21T13:19:51.555Z,99.90
2018-06-21T13:24:47.427Z,99.90
2018-06-21T13:29:43.433Z,99.90
2018-06-21T13:32:11.451Z,99.90
2018-06-21T13:34:39.419Z,99.90
2018-06-21T13:37:08.121Z,99.90
2018-06-21T13:39:36.219Z,99.90
2018-06-21T13:42:04.409Z,99.90
2018-06-21T13:44:32.632Z,99.90
2018-06-21T13:47:01.491Z,99.90
2018-06-21T13:49:29.479Z,99.90
2018-06-21T13:51:57.635Z,99.90
2018-06-21T13:54:25.959Z,99.90
2018-06-21T13:56:53.935Z,99.90
2018-06-21T13:59:21.911Z,99.90
2018-06-21T14:01:50.260Z,99.90
2018-06-21T14:04:18.237Z,99.90
2018-06-21T14:06:46.219Z,99.90
2018-06-21T14:09:14.238Z,99.90
2018-06-21T14:11:42.727Z,99.90
2018-06-21T14:14:10.770Z,99.80
2018-06-21T14:16:38.766Z,96.60
2018-06-21T14:19:07.090Z,96.30
2018-06-21T14:21:35.276Z,95.90
2018-06-21T14:24:07.259Z,95.90
2018-06-21T14:26:36.156Z,95.10
2018-06-21T14:29:04.304Z,95.20
2018-06-21T14:31:32.262Z,94.40
2018-06-21T14:36:28.070Z,92.70
2018-06-21T14:38:56.166Z,91.80
2018-06-21T14:41:24.392Z,90.50
2018-06-21T14:43:52.440Z,90.10
2018-06-21T14:46:20.795Z,89.50
2018-06-21T14:48:48.817Z,88.70
2018-06-21T14:51:17.046Z,89.10
2018-06-21T14:56:13.177Z,89.80
2018-06-21T14:58:41.668Z,89.30
2018-06-21T15:01:09.615Z,88.30
2018-06-21T15:03:37.631Z,84.20
2018-06-21T15:06:05.596Z,84.00
2018-06-21T15:08:33.548Z,84.40
2018-06-21T15:11:01.544Z,82.90
2018-06-21T15:13:29.575Z,83.00
2018-06-21T15:15:57.627Z,81.80
2018-06-21T15:18:25.731Z,80.10
2018-06-21T15:20:53.671Z,80.10
2018-06-21T15:23:21.647Z,78.20
2018-06-21T15:25:50.335Z,78.30
2018-06-21T15:30:46.397Z,77.60
2018-06-21T15:33:14.355Z,76.90
2018-06-21T15:35:42.379Z,76.20
2018-06-21T15:38:10.420Z,76.10
2018-06-21T15:40:38.462Z,75.20
2018-06-21T15:43:06.528Z,73.40
2018-06-21T15:48:02.811Z,64.90
2018-06-21T15:50:30.877Z,62.40
2018-06-21T15:55:26.778Z,59.40
2018-06-21T15:57:54.772Z,59.10
2018-06-21T16:00:22.735Z,62.20
2018-06-21T16:02:50.739Z,64.10
2018-06-21T16:05:18.731Z,60.30
2018-06-21T16:07:46.780Z,56.30
2018-06-21T16:10:14.859Z,54.10
2018-06-21T16:12:43.140Z,50.30
2018-06-21T16:22:36.807Z,46.50
2018-06-21T16:25:05.078Z,47.70
2018-06-21T16:27:33.401Z,50.40
2018-06-21T16:30:02.120Z,52.20
2018-06-21T16:32:30.202Z,54.40
2018-06-21T16:34:58.444Z,56.00
2018-06-21T16:37:26.391Z,53.10
2018-06-21T16:39:54.382Z,51.70
2018-06-21T16:42:22.718Z,47.20
2018-06-21T16:44:51.857Z,45.80
2018-06-21T16:47:20.191Z,44.70
2018-06-21T16:49:48.667Z,46.50
2018-06-21T16:52:17.080Z,46.60
2018-06-21T16:54:45.520Z,46.40
2018-06-21T16:57:14.043Z,49.40
2018-06-21T16:59:42.676Z,53.00
2018-06-21T17:02:13.357Z,54.60
2018-06-21T17:04:42.381Z,56.50
2018-06-21T17:07:10.491Z,57.80
2018-06-21T17:09:38.518Z,59.00
2018-06-21T17:14:35.008Z,55.40
2018-06-21T17:17:03.167Z,53.30
2018-06-21T17:19:31.305Z,51.20
2018-06-21T17:22:00.079Z,50.30
2018-06-21T17:24:28.207Z,49.10
2018-06-21T17:26:56.155Z,48.50
2018-06-21T17:29:24.436Z,48.10
2018-06-21T17:31:52.435Z,47.20
2018-06-21T17:34:20.424Z,48.10
2018-06-21T17:36:48.398Z,48.50
2018-06-21T17:39:16.377Z,48.70
2018-06-21T17:41:44.407Z,46.50
2018-06-21T17:46:40.784Z,44.80
2018-06-21T17:54:05.711Z,50.60
2018-06-21T17:56:36.821Z,53.60
2018-06-21T17:59:05.187Z,54.60
2018-06-21T18:01:33.142Z,56.10
2018-06-21T18:04:01.142Z,56.80
2018-06-21T18:06:29.102Z,54.70
2018-06-21T18:08:57.159Z,51.40
2018-06-21T18:11:25.301Z,51.20
2018-06-21T18:13:53.796Z,52.50
2018-06-21T18:16:21.731Z,53.60
2018-06-21T18:18:49.684Z,53.60
2018-06-21T18:21:18.468Z,54.40
2018-06-21T18:23:46.436Z,53.50
2018-06-21T18:26:14.391Z,54.50
2018-06-21T18:28:42.588Z,55.90
2018-06-21T18:31:12.145Z,55.40
2018-06-21T18:33:40.150Z,53.30
2018-06-21T18:36:08.684Z,52.20
2018-06-21T18:38:36.675Z,53.90
2018-06-21T18:41:04.714Z,53.40
2018-06-21T18:43:32.724Z,54.00
2018-06-21T18:48:32.997Z,57.20
2018-06-21T18:51:02.258Z,59.30
2018-06-21T18:53:30.481Z,61.60
2018-06-21T18:57:01.993Z,63.80
2018-06-21T18:59:30.143Z,65.30
2018-06-21T19:01:58.276Z,67.60
2018-06-21T19:04:26.299Z,68.80
2018-06-21T19:06:59.887Z,68.70
2018-06-21T19:12:03.794Z,68.80
2018-06-21T19:14:31.875Z,69.80
2018-06-21T19:17:01.185Z,69.90
2018-06-21T19:19:29.258Z,70.60
2018-06-21T19:21:57.172Z,70.70
2018-06-21T19:24:25.335Z,71.20
2018-06-21T19:26:53.730Z,71.80
2018-06-21T19:29:22.450Z,72.20
2018-06-21T19:31:54.462Z,72.90
2018-06-21T19:36:50.684Z,74.40
2018-06-21T19:39:18.727Z,75.10
2018-06-21T19:41:46.710Z,75.70
2018-06-21T19:44:14.671Z,76.60
2018-06-21T19:49:10.412Z,77.60
2018-06-21T19:51:38.414Z,78.40
2018-06-21T19:54:06.804Z,79.00
2018-06-21T19:56:35.675Z,79.70
2018-06-21T19:59:04.862Z,80.40
2018-06-21T20:01:33.111Z,80.80
2018-06-21T20:06:29.147Z,82.00
2018-06-21T20:08:57.168Z,82.30
2018-06-21T20:11:30.647Z,82.70
2018-06-21T20:13:58.669Z,83.60
2018-06-21T20:18:54.465Z,83.50
2018-06-21T20:21:22.646Z,83.40
2018-06-21T20:23:51.519Z,83.80
2018-06-21T20:28:48.191Z,84.10
2018-06-21T20:31:17.458Z,84.20
2018-06-21T20:33:46.558Z,84.40
2018-06-21T20:36:15.243Z,84.10
2018-06-21T20:38:43.220Z,84.30
2018-06-21T20:43:40.298Z,84.80
2018-06-21T20:46:09.991Z,84.90
2018-06-21T20:48:37.935Z,85.30
2018-06-21T20:51:06.240Z,85.60
2018-06-21T20:53:34.255Z,85.90
2018-06-21T20:56:02.255Z,86.70
2018-06-21T21:00:58.032Z,87.50
2018-06-21T21:03:25.969Z,87.70
2018-06-21T21:05:53.927Z,87.90
2018-06-21T21:08:21.883Z,88.30
2018-06-21T21:10:49.868Z,88.50
2018-06-21T21:13:17.860Z,88.80
2018-06-21T21:15:45.931Z,89.30
2018-06-21T21:23:09.911Z,90.20
2018-06-21T21:25:37.828Z,90.40
2018-06-21T21:28:06.190Z,90.60
2018-06-21T21:30:34.347Z,91.00
2018-06-21T21:33:02.455Z,91.10
2018-06-21T21:35:30.531Z,91.30
2018-06-21T21:37:58.611Z,91.40
2018-06-21T21:40:26.576Z,91.40
2018-06-21T21:42:54.535Z,91.60
2018-06-21T21:45:22.503Z,91.70
2018-06-21T21:47:50.507Z,92.00
2018-06-21T21:52:46.507Z,92.10
2018-06-21T21:55:14.450Z,92.20
2018-06-21T22:00:21.871Z,92.30
2018-06-21T22:02:50.012Z,92.50
2018-06-21T22:05:18.041Z,92.40
2018-06-21T22:07:46.147Z,92.80
2018-06-21T22:10:14.124Z,93.40
2018-06-21T22:12:42.223Z,93.60
2018-06-21T22:15:10.331Z,93.90
2018-06-21T22:17:38.324Z,94.10
2018-06-21T22:20:07.679Z,94.60
2018-06-21T22:22:36.031Z,94.90
2018-06-21T22:25:04.059Z,95.30
2018-06-21T22:29:59.803Z,95.80
2018-06-21T22:32:27.755Z,96.50
2018-06-21T22:34:55.703Z,96.40
2018-06-21T22:37:23.659Z,96.40
2018-06-21T22:39:51.639Z,96.70
2018-06-21T22:42:19.663Z,96.70
2018-06-21T22:44:48.005Z,96.40
2018-06-21T22:47:15.940Z,96.20
2018-06-21T22:49:43.930Z,95.90
2018-06-21T22:52:12.041Z,95.80
2018-06-21T22:54:39.992Z,95.60
2018-06-21T22:57:08.081Z,95.50
2018-06-21T22:59:36.179Z,95.70
2018-06-21T23:02:04.173Z,95.70
2018-06-21T23:04:32.310Z,95.70
2018-06-21T23:07:00.292Z,95.40
2018-06-21T23:09:28.249Z,95.30
2018-06-21T23:11:56.202Z,95.30
2018-06-21T23:14:24.159Z,95.50
2018-06-21T23:16:54.031Z,95.50
2018-06-21T23:19:30.666Z,95.70
2018-06-21T23:21:59.381Z,95.70
2018-06-21T23:24:27.697Z,95.80
2018-06-21T23:26:55.864Z,95.80
2018-06-21T23:29:23.826Z,95.90
2018-06-21T23:31:52.232Z,96.00
2018-06-21T23:34:20.840Z,96.20
2018-06-21T23:36:49.310Z,96.30
2018-06-21T23:39:17.368Z,96.40
2018-06-21T23:41:45.399Z,96.70
2018-06-21T23:44:14.356Z,97.00
2018-06-21T23:49:12.220Z,97.50
2018-06-21T23:51:40.526Z,97.60
2018-06-21T23:54:12.782Z,97.60
2018-06-21T23:56:41.774Z,97.80
2018-06-21T23:59:09.756Z,97.90
